createdAt,value
2023-05-05T00:02:21.079Z,4.40
2023-05-05T00:04:47.857Z,4.70
2023-05-05T00:07:14.584Z,4.88
2023-05-05T00:09:41.899Z,5.18
2023-05-05T00:12:08.697Z,5.32
2023-05-05T00:14:35.496Z,4.78
2023-05-05T00:17:02.360Z,5.03
2023-05-05T00:19:29.103Z,5.30
2023-05-05T00:21:55.829Z,4.88
2023-05-05T00:24:22.502Z,4.85
2023-05-05T00:26:49.223Z,4.85
2023-05-05T00:29:15.920Z,5.15
2023-05-05T00:31:42.649Z,4.32
2023-05-05T00:34:09.437Z,4.63
2023-05-05T00:36:36.145Z,5.45
2023-05-05T00:39:03.215Z,5.32
2023-05-05T00:41:30.051Z,5.00
2023-05-05T00:43:56.749Z,5.43
2023-05-05T00:46:27.119Z,5.70
2023-05-05T00:48:54.833Z,5.22
2023-05-05T00:51:22.341Z,4.63
2023-05-05T00:53:49.415Z,4.95
2023-05-05T00:56:17.595Z,4.78
2023-05-05T00:58:44.732Z,4.82
2023-05-05T01:01:12.056Z,3.90
2023-05-05T01:03:40.153Z,5.07
2023-05-05T01:06:33.936Z,4.30
2023-05-05T01:09:19.639Z,5.40
2023-05-05T01:12:15.851Z,4.40
2023-05-05T01:14:57.034Z,4.75
2023-05-05T01:17:33.174Z,4.97
2023-05-05T01:20:13.622Z,4.38
2023-05-05T01:22:46.715Z,5.20
2023-05-05T01:25:56.805Z,4.97
2023-05-05T01:31:41.989Z,4.97
2023-05-05T01:34:12.125Z,4.80
2023-05-05T01:39:14.872Z,4.50
2023-05-05T01:41:48.221Z,5.45
2023-05-05T01:44:16.877Z,5.28
2023-05-05T01:46:43.670Z,4.80
2023-05-05T01:49:12.320Z,5.00
2023-05-05T01:51:40.619Z,5.20
2023-05-05T01:54:09.422Z,4.90
2023-05-05T01:56:40.228Z,4.93
2023-05-05T01:59:08.031Z,4.47
2023-05-05T02:01:39.533Z,4.90
2023-05-05T02:04:10.011Z,4.65
2023-05-05T02:06:38.487Z,5.28
2023-05-05T02:09:06.770Z,4.82
2023-05-05T02:11:33.760Z,4.82
2023-05-05T02:14:02.329Z,4.82
2023-05-05T02:16:31.305Z,5.43
2023-05-05T02:19:01.508Z,5.00
2023-05-05T02:21:28.690Z,5.63
2023-05-05T02:23:55.817Z,5.65
2023-05-05T02:26:24.435Z,5.05
2023-05-05T02:29:07.828Z,4.93
2023-05-05T02:31:47.898Z,5.18
2023-05-05T02:34:28.164Z,4.95
2023-05-05T02:39:47.387Z,4.70
2023-05-05T02:42:18.775Z,5.45
2023-05-05T02:44:46.021Z,5.78
2023-05-05T02:47:12.811Z,5.75
2023-05-05T02:49:39.575Z,5.55
2023-05-05T02:52:06.495Z,5.18
2023-05-05T02:54:33.806Z,4.50
2023-05-05T02:57:00.954Z,5.60
2023-05-05T02:59:27.943Z,5.55
2023-05-05T03:02:10.138Z,5.97
2023-05-05T03:04:45.958Z,5.63
2023-05-05T03:07:20.301Z,5.88
2023-05-05T03:10:08.851Z,6.00
2023-05-05T03:12:49.756Z,5.22
2023-05-05T03:15:17.146Z,5.22
2023-05-05T03:17:44.779Z,10.30
2023-05-05T03:20:13.725Z,8.63
2023-05-05T03:22:40.489Z,7.97
2023-05-05T03:25:07.806Z,8.35
2023-05-05T03:27:34.503Z,6.60
2023-05-05T03:30:01.286Z,7.40
2023-05-05T03:32:28.081Z,6.03
2023-05-05T03:34:54.971Z,6.07
2023-05-05T03:37:22.129Z,6.07
2023-05-05T03:39:48.969Z,5.93
2023-05-05T03:42:15.739Z,6.13
2023-05-05T03:44:42.517Z,6.40
2023-05-05T03:47:09.257Z,6.60
2023-05-05T03:49:36.012Z,6.00
2023-05-05T03:52:02.779Z,6.05
2023-05-05T03:54:29.609Z,6.47
2023-05-05T03:56:56.441Z,6.05
2023-05-05T03:59:23.181Z,6.65
2023-05-05T04:01:50.158Z,6.75
2023-05-05T04:04:16.997Z,6.90
2023-05-05T04:06:43.741Z,7.22
2023-05-05T04:09:12.174Z,7.85
2023-05-05T04:11:38.873Z,7.95
2023-05-05T04:14:05.766Z,7.30
2023-05-05T04:16:32.576Z,8.85
2023-05-05T04:18:59.463Z,6.78
2023-05-05T04:21:26.249Z,7.32
2023-05-05T04:23:53.067Z,6.75
2023-05-05T04:26:19.762Z,6.50
2023-05-05T04:28:46.579Z,6.22
2023-05-05T04:31:13.319Z,6.10
2023-05-05T04:33:40.811Z,6.30
2023-05-05T04:36:29.032Z,6.63
2023-05-05T04:39:02.042Z,7.32
2023-05-05T04:41:35.360Z,7.97
2023-05-05T04:44:05.264Z,7.05
2023-05-05T04:46:35.149Z,7.22
2023-05-05T04:49:07.329Z,7.95
2023-05-05T04:51:46.215Z,7.43
2023-05-05T04:54:19.946Z,6.78
2023-05-05T04:56:47.368Z,7.05
2023-05-05T04:59:20.729Z,7.50
2023-05-05T05:01:47.642Z,7.18
2023-05-05T05:04:18.657Z,6.50
2023-05-05T05:06:46.211Z,7.25
2023-05-05T05:09:13.390Z,7.07
2023-05-05T05:11:40.265Z,6.82
2023-05-05T05:14:07.115Z,6.57
2023-05-05T05:16:33.984Z,7.57
2023-05-05T05:19:01.819Z,7.03
2023-05-05T05:21:28.869Z,7.05
2023-05-05T05:23:55.713Z,6.85
2023-05-05T05:26:23.398Z,6.90
2023-05-05T05:28:50.146Z,6.75
2023-05-05T05:31:16.909Z,6.60
2023-05-05T05:33:44.050Z,6.75
2023-05-05T05:36:10.845Z,6.43
2023-05-05T05:38:37.621Z,6.10
2023-05-05T05:41:07.900Z,5.30
2023-05-05T05:43:34.742Z,6.15
2023-05-05T05:46:01.663Z,6.28
2023-05-05T05:48:29.549Z,9.13
2023-05-05T05:50:57.243Z,7.13
2023-05-05T05:53:24.171Z,5.72
2023-05-05T05:55:50.939Z,5.47
2023-05-05T05:58:18.660Z,5.63
2023-05-05T06:00:45.738Z,5.22
2023-05-05T06:03:12.778Z,5.03
2023-05-05T06:05:39.808Z,5.25
2023-05-05T06:08:06.795Z,5.55
2023-05-05T06:10:33.898Z,5.13
2023-05-05T06:13:00.831Z,4.55
2023-05-05T06:15:27.617Z,4.60
2023-05-05T06:17:54.447Z,4.97
2023-05-05T06:20:21.172Z,4.57
2023-05-05T06:22:48.017Z,4.00
2023-05-05T06:25:14.836Z,3.95
2023-05-05T06:27:41.585Z,4.40
2023-05-05T06:30:09.827Z,4.25
2023-05-05T06:32:36.851Z,4.32
2023-05-05T06:35:03.722Z,4.57
2023-05-05T06:37:30.541Z,4.20
2023-05-05T06:39:57.390Z,4.20
2023-05-05T06:42:24.235Z,4.50
2023-05-05T06:44:51.049Z,4.05
2023-05-05T06:47:17.831Z,4.72
2023-05-05T06:49:44.571Z,4.50
2023-05-05T06:52:11.576Z,4.38
2023-05-05T06:54:38.311Z,4.28
2023-05-05T06:57:05.174Z,3.92
2023-05-05T06:59:32.598Z,3.53
2023-05-05T07:01:59.713Z,4.03
2023-05-05T07:04:27.049Z,3.72
2023-05-05T07:06:55.342Z,4.20
2023-05-05T07:09:22.141Z,4.15
2023-05-05T07:11:48.922Z,4.78
2023-05-05T07:14:15.709Z,4.53
2023-05-05T07:16:42.518Z,4.47
2023-05-05T07:19:09.393Z,7.00
2023-05-05T07:21:36.809Z,4.72
2023-05-05T07:24:04.064Z,5.15
2023-05-05T07:26:31.177Z,5.05
2023-05-05T07:28:59.220Z,5.65
2023-05-05T07:31:26.742Z,4.40
2023-05-05T07:33:53.915Z,4.95
2023-05-05T07:36:20.938Z,4.90
2023-05-05T07:38:47.763Z,4.43
2023-05-05T07:41:14.581Z,4.50
2023-05-05T07:43:44.197Z,4.95
2023-05-05T07:46:11.565Z,4.40
2023-05-05T07:48:41.599Z,4.30
2023-05-05T07:51:09.439Z,4.40
2023-05-05T07:53:36.433Z,5.10
2023-05-05T07:56:03.786Z,4.45
2023-05-05T07:58:30.826Z,4.85
2023-05-05T08:00:57.690Z,4.90
2023-05-05T08:03:25.154Z,4.65
2023-05-05T08:05:54.528Z,4.55
2023-05-05T08:08:25.085Z,4.60
2023-05-05T08:10:53.475Z,4.40
2023-05-05T08:13:20.675Z,4.78
2023-05-05T08:15:47.814Z,4.95
2023-05-05T08:18:15.072Z,4.18
2023-05-05T08:20:41.981Z,4.30
2023-05-05T08:23:08.766Z,4.70
2023-05-05T08:25:35.554Z,5.93
2023-05-05T08:28:02.270Z,5.22
2023-05-05T08:30:29.139Z,4.53
2023-05-05T08:32:56.715Z,5.05
2023-05-05T08:35:23.677Z,4.65
2023-05-05T08:37:53.471Z,4.65
2023-05-05T08:40:22.964Z,4.93
2023-05-05T08:42:49.824Z,4.53
2023-05-05T08:45:17.044Z,5.43
2023-05-05T08:47:44.480Z,5.20
2023-05-05T08:50:12.144Z,5.57
2023-05-05T08:52:41.968Z,5.00
2023-05-05T08:55:26.716Z,4.90
2023-05-05T08:57:56.775Z,5.18
2023-05-05T09:00:24.599Z,5.70
2023-05-05T09:02:52.059Z,4.22
2023-05-05T09:05:19.115Z,3.85
2023-05-05T09:07:47.480Z,4.93
2023-05-05T09:10:14.830Z,4.80
2023-05-05T09:12:42.260Z,5.22
2023-05-05T09:15:14.294Z,5.55
2023-05-05T09:17:41.907Z,4.78
2023-05-05T09:20:11.020Z,5.38
2023-05-05T09:22:46.317Z,5.43
2023-05-05T09:25:18.213Z,5.13
2023-05-05T09:27:48.185Z,5.45
2023-05-05T09:30:24.606Z,6.10
2023-05-05T09:32:53.354Z,5.25
2023-05-05T09:35:21.801Z,6.20
2023-05-05T09:37:48.652Z,5.53
2023-05-05T09:40:18.168Z,4.90
2023-05-05T09:42:45.656Z,5.28
2023-05-05T09:45:18.240Z,5.70
2023-05-05T09:47:47.040Z,6.03
2023-05-05T09:50:16.354Z,6.03
2023-05-05T09:52:43.473Z,5.05
2023-05-05T09:55:19.651Z,5.60
2023-05-05T09:57:47.623Z,5.70
2023-05-05T10:00:14.919Z,4.85
2023-05-05T10:02:42.162Z,4.93
2023-05-05T10:05:17.275Z,5.78
2023-05-05T10:07:46.145Z,5.40
2023-05-05T10:10:15.133Z,4.82
2023-05-05T10:12:42.413Z,4.75
2023-05-05T10:15:10.980Z,4.72
2023-05-05T10:18:05.339Z,3.78
2023-05-05T10:20:35.796Z,3.90
2023-05-05T10:25:33.266Z,5.25
2023-05-05T10:28:01.721Z,4.90
2023-05-05T10:30:32.056Z,5.00
2023-05-05T10:33:32.167Z,4.57
2023-05-05T10:36:02.638Z,4.03
2023-05-05T10:38:33.923Z,5.03
2023-05-05T10:41:02.400Z,5.00
2023-05-05T10:43:31.005Z,4.57
2023-05-05T10:45:59.176Z,4.10
2023-05-05T10:48:40.795Z,4.28
2023-05-05T10:51:40.681Z,3.50
2023-05-05T10:54:43.385Z,3.55
2023-05-05T10:57:11.347Z,3.90
2023-05-05T10:59:38.373Z,4.20
2023-05-05T11:02:21.454Z,3.90
2023-05-05T11:05:23.814Z,4.10
2023-05-05T11:07:52.221Z,4.68
2023-05-05T11:10:21.006Z,3.90
2023-05-05T11:12:59.461Z,4.00
2023-05-05T11:15:32.019Z,3.90
2023-05-05T11:18:01.924Z,2.75
2023-05-05T11:20:43.690Z,3.65
2023-05-05T11:23:12.564Z,3.67
2023-05-05T11:25:41.260Z,3.30
2023-05-05T11:28:08.550Z,3.75
2023-05-05T11:30:36.896Z,3.97
2023-05-05T11:33:31.659Z,6.50
2023-05-05T11:35:59.557Z,4.30
2023-05-05T11:38:57.096Z,3.70
2023-05-05T11:41:34.110Z,3.95
2023-05-05T11:44:19.894Z,3.78
2023-05-05T11:46:52.609Z,3.70
2023-05-05T11:49:30.385Z,3.60
2023-05-05T11:52:02.267Z,3.40
2023-05-05T11:54:30.454Z,3.33
2023-05-05T11:57:02.122Z,4.20
2023-05-05T11:59:28.898Z,3.15
2023-05-05T12:01:55.835Z,3.30
2023-05-05T12:04:22.910Z,3.45
2023-05-05T12:06:49.916Z,3.40
2023-05-05T12:09:21.090Z,3.42
2023-05-05T12:11:58.778Z,3.67
2023-05-05T12:14:26.008Z,2.97
2023-05-05T12:16:56.740Z,2.67
2023-05-05T12:19:25.319Z,3.30
2023-05-05T12:21:54.348Z,3.92
2023-05-05T12:24:21.191Z,2.80
2023-05-05T12:26:48.121Z,4.25
2023-05-05T12:29:24.178Z,2.92
2023-05-05T12:31:51.170Z,2.97
2023-05-05T12:34:18.831Z,2.90
2023-05-05T12:36:46.126Z,2.65
2023-05-05T12:39:13.177Z,2.78
2023-05-05T12:41:40.103Z,2.90
2023-05-05T12:44:07.299Z,2.53
2023-05-05T12:46:47.547Z,2.58
2023-05-05T12:49:14.854Z,2.58
2023-05-05T12:51:54.314Z,2.85
2023-05-05T12:54:23.047Z,2.60
2023-05-05T12:56:49.853Z,3.10
2023-05-05T12:59:24.055Z,2.53
2023-05-05T13:01:55.677Z,2.75
2023-05-05T13:04:24.493Z,2.20
2023-05-05T13:07:10.153Z,2.35
2023-05-05T13:09:37.112Z,2.20
2023-05-05T13:12:04.669Z,1.90
2023-05-05T13:14:37.862Z,2.20
2023-05-05T13:17:05.031Z,1.90
2023-05-05T13:19:31.953Z,2.40
2023-05-05T13:21:59.122Z,1.77
2023-05-05T13:24:42.177Z,2.15
2023-05-05T13:27:13.185Z,2.40
2023-05-05T13:29:41.742Z,2.13
2023-05-05T13:32:08.648Z,1.90
2023-05-05T13:34:35.577Z,2.63
2023-05-05T13:37:02.346Z,2.25
2023-05-05T13:39:29.176Z,2.30
2023-05-05T13:41:56.011Z,2.13
2023-05-05T13:44:22.822Z,2.38
2023-05-05T13:46:49.624Z,2.50
2023-05-05T13:49:16.505Z,2.10
2023-05-05T13:51:43.555Z,2.30
2023-05-05T13:54:10.626Z,2.58
2023-05-05T13:56:37.525Z,2.22
2023-05-05T13:59:04.327Z,2.38
2023-05-05T14:01:31.308Z,2.60
2023-05-05T14:03:58.425Z,2.75
2023-05-05T14:06:26.077Z,2.25
2023-05-05T14:08:53.125Z,3.40
2023-05-05T14:11:20.899Z,2.45
2023-05-05T14:13:48.262Z,2.50
2023-05-05T14:16:15.588Z,2.47
2023-05-05T14:18:42.660Z,2.55
2023-05-05T14:21:09.840Z,2.47
2023-05-05T14:23:36.609Z,2.80
2023-05-05T14:26:03.516Z,2.90
2023-05-05T14:28:30.916Z,2.55
2023-05-05T14:30:57.932Z,2.63
2023-05-05T14:33:24.784Z,2.92
2023-05-05T14:35:51.630Z,2.85
2023-05-05T14:38:18.679Z,2.40
2023-05-05T14:40:45.591Z,2.70
2023-05-05T14:43:12.369Z,3.30
2023-05-05T14:45:39.306Z,2.65
2023-05-05T14:48:06.139Z,2.30
2023-05-05T14:50:32.944Z,2.50
2023-05-05T14:52:59.768Z,2.60
2023-05-05T14:55:26.754Z,2.42
2023-05-05T14:57:53.651Z,2.10
2023-05-05T15:00:20.602Z,2.25
2023-05-05T15:02:48.556Z,2.08
2023-05-05T15:05:15.699Z,2.97
2023-05-05T15:07:42.558Z,2.30
2023-05-05T15:10:09.866Z,1.80
2023-05-05T15:12:36.826Z,2.10
2023-05-05T15:15:03.895Z,2.10
2023-05-05T15:17:31.908Z,2.33
2023-05-05T15:19:58.874Z,2.00
2023-05-05T15:22:26.183Z,1.40
2023-05-05T15:24:53.330Z,1.75
2023-05-05T15:27:20.206Z,2.53
2023-05-05T15:29:47.105Z,2.72
2023-05-05T15:32:13.821Z,1.90
2023-05-05T15:34:40.843Z,1.90
2023-05-05T15:37:07.740Z,2.00
2023-05-05T15:39:34.544Z,2.38
2023-05-05T15:42:04.161Z,2.03
2023-05-05T15:44:31.845Z,10.32
2023-05-05T15:46:58.726Z,8.90
2023-05-05T15:49:25.545Z,4.30
2023-05-05T15:51:52.394Z,3.47
2023-05-05T15:54:19.184Z,2.22
2023-05-05T15:56:51.935Z,2.22
2023-05-05T15:59:19.328Z,2.60
2023-05-05T16:01:47.105Z,2.67
2023-05-05T16:04:14.415Z,2.42
2023-05-05T16:06:41.198Z,2.40
2023-05-05T16:09:08.112Z,3.30
2023-05-05T16:11:35.213Z,5.50
2023-05-05T16:14:02.699Z,2.53
2023-05-05T16:16:29.646Z,2.03
2023-05-05T16:18:56.402Z,2.35
2023-05-05T16:21:23.297Z,2.22
2023-05-05T16:23:50.103Z,2.28
2023-05-05T16:26:16.841Z,2.13
2023-05-05T16:28:43.664Z,1.88
2023-05-05T16:31:11.101Z,2.03
2023-05-05T16:33:43.792Z,2.58
2023-05-05T16:36:14.593Z,2.38
2023-05-05T16:38:41.519Z,1.95
2023-05-05T16:41:08.450Z,1.98
2023-05-05T16:43:37.322Z,2.50
2023-05-05T16:46:04.597Z,2.40
2023-05-05T16:48:31.516Z,2.05
2023-05-05T16:50:58.672Z,2.10
2023-05-05T16:53:26.130Z,2.10
2023-05-05T16:55:53.655Z,2.00
2023-05-05T16:58:21.407Z,1.63
2023-05-05T17:00:49.326Z,2.08
2023-05-05T17:03:17.213Z,2.03
2023-05-05T17:05:49.823Z,2.13
2023-05-05T17:08:17.184Z,2.00
2023-05-05T17:10:45.557Z,2.80
2023-05-05T17:13:23.768Z,1.75
2023-05-05T17:15:59.675Z,5.78
2023-05-05T17:18:31.780Z,2.65
2023-05-05T17:20:58.618Z,4.57
2023-05-05T17:23:25.366Z,2.00
2023-05-05T17:25:52.171Z,1.92
2023-05-05T17:28:18.971Z,2.50
2023-05-05T17:30:46.030Z,2.20
2023-05-05T17:33:12.937Z,2.13
2023-05-05T17:35:39.806Z,2.40
2023-05-05T17:38:06.544Z,2.15
2023-05-05T17:40:33.399Z,2.53
2023-05-05T17:43:00.131Z,1.95
2023-05-05T17:45:26.940Z,2.10
2023-05-05T17:47:53.726Z,2.45
2023-05-05T17:50:20.540Z,2.42
2023-05-05T17:52:47.257Z,2.30
2023-05-05T17:55:14.008Z,2.40
2023-05-05T17:57:40.847Z,2.45
2023-05-05T18:00:14.803Z,2.50
2023-05-05T18:02:42.098Z,2.65
2023-05-05T18:05:10.194Z,2.85
2023-05-05T18:07:38.788Z,2.60
2023-05-05T18:10:07.402Z,2.70
2023-05-05T18:12:35.298Z,3.10
2023-05-05T18:15:03.267Z,2.25
2023-05-05T18:17:30.064Z,2.75
2023-05-05T18:19:56.921Z,2.30
2023-05-05T18:22:25.014Z,2.20
2023-05-05T18:24:51.864Z,2.85
2023-05-05T18:27:18.641Z,2.90
2023-05-05T18:29:45.323Z,2.38
2023-05-05T18:32:12.279Z,2.50
2023-05-05T18:34:39.159Z,2.67
2023-05-05T18:37:05.942Z,2.60
2023-05-05T18:39:32.679Z,2.80
2023-05-05T18:42:04.192Z,3.00
2023-05-05T18:44:32.957Z,2.63
2023-05-05T18:47:01.912Z,2.65
2023-05-05T18:49:31.153Z,2.42
2023-05-05T18:51:58.613Z,2.70
2023-05-05T18:54:26.239Z,2.85
2023-05-05T18:56:52.995Z,3.47
2023-05-05T18:59:19.852Z,3.45
2023-05-05T19:01:46.769Z,3.00
2023-05-05T19:04:26.653Z,3.20
2023-05-05T19:06:53.945Z,3.05
2023-05-05T19:09:20.985Z,3.50
2023-05-05T19:11:47.796Z,2.88
2023-05-05T19:14:14.678Z,3.20
2023-05-05T19:16:41.489Z,3.00
2023-05-05T19:19:08.360Z,2.88
2023-05-05T19:21:35.070Z,2.80
2023-05-05T19:24:01.827Z,3.00
2023-05-05T19:26:28.682Z,4.20
2023-05-05T19:28:55.558Z,3.53
2023-05-05T19:31:27.814Z,3.05
2023-05-05T19:34:00.653Z,3.13
2023-05-05T19:36:28.023Z,2.95
2023-05-05T19:38:55.934Z,3.22
2023-05-05T19:41:22.733Z,3.60
2023-05-05T19:43:50.161Z,3.38
2023-05-05T19:46:17.357Z,3.50
2023-05-05T19:48:44.546Z,3.15
2023-05-05T19:51:11.522Z,3.42
2023-05-05T19:53:40.250Z,3.70
2023-05-05T19:56:06.958Z,3.75
2023-05-05T19:58:56.061Z,3.38
2023-05-05T20:01:23.544Z,3.60
2023-05-05T20:03:51.097Z,4.75
2023-05-05T20:06:18.161Z,4.32
2023-05-05T20:08:44.882Z,4.50
2023-05-05T20:11:12.021Z,5.82
2023-05-05T20:13:39.170Z,6.38
2023-05-05T20:16:07.465Z,4.72
2023-05-05T20:18:34.288Z,4.70
2023-05-05T20:21:02.015Z,4.45
2023-05-05T20:23:29.314Z,5.45
2023-05-05T20:25:56.871Z,5.50
2023-05-05T20:28:23.991Z,5.20
2023-05-05T20:30:51.044Z,5.13
2023-05-05T20:33:18.070Z,5.38
2023-05-05T20:35:44.909Z,4.93
2023-05-05T20:38:11.916Z,5.05
2023-05-05T20:40:40.376Z,5.70
2023-05-05T20:43:07.198Z,5.03
2023-05-05T20:45:34.700Z,5.20
2023-05-05T20:48:01.845Z,5.20
2023-05-05T20:50:28.711Z,5.20
2023-05-05T20:52:55.724Z,5.22
2023-05-05T20:55:22.787Z,4.70
2023-05-05T20:57:49.574Z,4.55
2023-05-05T21:00:16.517Z,4.80
2023-05-05T21:02:43.495Z,4.57
2023-05-05T21:05:10.460Z,4.80
2023-05-05T21:07:37.386Z,4.40
2023-05-05T21:10:05.039Z,4.50
2023-05-05T21:12:33.627Z,4.80
2023-05-05T21:15:00.721Z,4.93
2023-05-05T21:17:27.922Z,5.65
2023-05-05T21:19:55.379Z,5.97
2023-05-05T21:22:22.541Z,8.20
2023-05-05T21:24:49.464Z,7.55
2023-05-05T21:27:16.275Z,5.63
2023-05-05T21:29:42.974Z,4.45
2023-05-05T21:32:11.195Z,5.32
2023-05-05T21:34:38.950Z,5.30
2023-05-05T21:37:06.652Z,5.25
2023-05-05T21:39:33.710Z,5.05
2023-05-05T21:42:01.235Z,6.13
2023-05-05T21:44:28.348Z,6.47
2023-05-05T21:46:55.770Z,6.30
2023-05-05T21:49:22.697Z,6.15
2023-05-05T21:51:50.877Z,6.03
2023-05-05T21:54:17.630Z,6.05
2023-05-05T21:56:44.458Z,5.45
2023-05-05T21:59:11.231Z,6.13
2023-05-05T22:01:37.962Z,5.72
2023-05-05T22:04:04.867Z,5.53
2023-05-05T22:06:32.634Z,4.85
2023-05-05T22:08:59.399Z,5.50
2023-05-05T22:11:26.282Z,6.10
2023-05-05T22:13:53.067Z,5.82
2023-05-05T22:16:19.924Z,5.18
2023-05-05T22:18:46.959Z,5.30
2023-05-05T22:21:13.961Z,5.28
2023-05-05T22:23:42.039Z,5.22
2023-05-05T22:26:09.411Z,6.03
2023-05-05T22:28:36.594Z,6.07
2023-05-05T22:31:03.344Z,5.43
2023-05-05T22:33:30.435Z,5.85
2023-05-05T22:35:57.381Z,5.15
2023-05-05T22:38:24.213Z,5.88
2023-05-05T22:40:50.973Z,5.32
2023-05-05T22:43:17.805Z,5.45
2023-05-05T22:45:44.672Z,5.80
2023-05-05T22:48:11.479Z,6.05
2023-05-05T22:50:38.395Z,5.18
2023-05-05T22:53:05.164Z,5.32
2023-05-05T22:55:31.989Z,5.80
2023-05-05T22:57:58.716Z,5.57
2023-05-05T23:03:33.894Z,4.93
2023-05-05T23:06:00.657Z,5.53
2023-05-05T23:08:27.342Z,5.47
2023-05-05T23:10:54.191Z,5.57
2023-05-05T23:13:21.165Z,4.88
2023-05-05T23:15:47.893Z,5.13
2023-05-05T23:18:14.771Z,4.90
2023-05-05T23:20:41.479Z,5.22
2023-05-05T23:23:08.324Z,5.45
2023-05-05T23:25:35.082Z,6.03
2023-05-05T23:28:01.873Z,5.50
2023-05-05T23:30:28.760Z,5.57
2023-05-05T23:32:57.605Z,5.57
2023-05-05T23:35:24.470Z,6.10
2023-05-05T23:37:51.204Z,5.80
2023-05-05T23:40:18.145Z,6.13
2023-05-05T23:42:44.813Z,6.40
2023-05-05T23:45:11.776Z,5.95
2023-05-05T23:47:38.844Z,5.28
2023-05-05T23:50:06.226Z,5.25
2023-05-05T23:52:32.931Z,4.90
2023-05-05T23:54:59.639Z,3.22
2023-05-05T23:57:26.536Z,2.40
2023-05-05T23:59:53.240Z,2.85
